Time;durP1;ratioP1;P1;durP2;ratioP2;P2;SDS_P1;SDS_P2;PMS_P1;PMS_P2;Temp;Humidity;BMP_temperature;BMP_pressure;BME280_temperature;BME280_humidity;BME280_pressure;Samples;Min_cycle;Max_cycle;Signal;HPM_P1;HPM_P2
2022/04/16 18:32:12;;;;;;;9.90;5.47;;;12.70;95.20;;;;;;5071299;28;20368;-52
2022/04/16 18:34:39;;;;;;;10.43;5.25;;;12.60;72.90;;;;;;5070572;28;20046;-54
2022/04/16 18:37:06;;;;;;;10.05;5.47;;;12.50;70.50;;;;;;5070616;28;20408;-52
2022/04/16 18:39:33;;;;;;;7.43;5.22;;;12.50;70.10;;;;;;5070314;28;20457;-54
2022/04/16 18:42:01;;;;;;;8.70;5.32;;;12.50;70.70;;;;;;5070502;28;20028;-53
2022/04/16 18:44:27;;;;;;;10.73;5.88;;;12.50;70.50;;;;;;5071091;28;20036;-53
2022/04/16 18:46:53;;;;;;;6.65;5.30;;;12.50;71.00;;;;;;5071004;28;20465;-53
2022/04/16 18:49:20;;;;;;;5.43;4.50;;;12.40;71.20;;;;;;5070028;28;20422;-54
2022/04/16 18:51:46;;;;;;;9.40;6.05;;;12.40;71.30;;;;;;5070563;28;20032;-52
2022/04/16 18:54:12;;;;;;;10.35;5.47;;;12.30;71.70;;;;;;5067048;28;20107;-52
2022/04/16 18:56:37;;;;;;;9.32;5.93;;;12.30;71.60;;;;;;5060115;28;20597;-51
2022/04/16 18:59:03;;;;;;;7.80;6.05;;;12.30;72.40;;;;;;5049692;28;20552;-51
2022/04/16 19:06:59;;;;;;;13.50;8.60;;;12.20;73.30;;;;;;5067558;28;20154;-49
2022/04/16 19:09:28;;;;;;;17.75;9.88;;;12.20;73.40;;;;;;5058791;28;20036;-48
2022/04/16 19:12:03;;;;;;;19.77;12.02;;;12.10;74.10;;;;;;5049657;28;20021;-51
2022/04/16 19:14:30;;;;;;;23.90;13.25;;;12.10;74.20;;;;;;5049797;28;20018;-49
2022/04/16 19:16:57;;;;;;;20.77;14.02;;;12.10;75.70;;;;;;5050267;28;20025;-48
2022/04/16 19:19:25;;;;;;;20.25;14.65;;;12.00;75.30;;;;;;5049545;28;20021;-51
2022/04/16 19:21:51;;;;;;;24.63;16.50;;;12.00;76.90;;;;;;5059718;28;20033;-49
2022/04/16 19:24:17;;;;;;;26.67;15.95;;;11.90;76.50;;;;;;5091702;23;20136;-72
2022/04/16 19:26:46;;;;;;;26.15;17.30;;;11.90;78.70;;;;;;5069363;28;20023;-74
2022/04/16 19:29:12;;;;;;;27.48;17.23;;;11.90;77.30;;;;;;5068774;28;20123;-73
2022/04/16 19:31:37;;;;;;;23.38;15.60;;;11.90;76.90;;;;;;5069480;28;20412;-73
2022/04/16 19:34:03;;;;;;;25.65;16.77;;;11.80;77.40;;;;;;5084508;28;20005;-73
2022/04/16 19:36:29;;;;;;;25.83;14.75;;;11.80;77.10;;;;;;5072380;28;20027;-73
2022/04/16 19:38:55;;;;;;;27.55;15.98;;;11.80;78.80;;;;;;5068279;28;20032;-74
2022/04/16 19:41:20;;;;;;;24.98;16.40;;;11.80;79.80;;;;;;5064647;28;20067;-74
2022/04/16 19:43:46;;;;;;;28.05;17.20;;;11.80;80.50;;;;;;5045027;28;20363;-73
2022/04/16 19:46:12;;;;;;;38.25;24.17;;;11.80;82.50;;;;;;5055765;28;20020;-73
2022/04/16 19:48:38;;;;;;;45.17;28.58;;;11.70;83.30;;;;;;5053694;28;20056;-74
2022/04/16 19:51:05;;;;;;;40.20;26.05;;;11.60;84.20;;;;;;5047184;28;20025;-73
2022/04/16 19:53:31;;;;;;;45.22;27.17;;;11.60;85.30;;;;;;5039701;28;20017;-74
2022/04/16 19:55:57;;;;;;;51.72;30.95;;;11.60;87.00;;;;;;5036482;28;20030;-74
2022/04/16 19:58:23;;;;;;;54.17;33.60;;;11.50;87.60;;;;;;5036892;28;20032;-73
2022/04/16 20:00:49;;;;;;;51.72;31.55;;;11.50;88.20;;;;;;5047961;28;20022;-73
2022/04/16 20:03:15;;;;;;;43.75;29.08;;;11.40;90.00;;;;;;5055132;28;20056;-73
2022/04/16 20:05:41;;;;;;;42.67;25.88;;;11.40;90.70;;;;;;5039912;28;20013;-73
2022/04/16 20:11:01;;;;;;;41.42;24.67;;;11.30;93.00;;;;;;4998528;28;20042;-73
2022/04/16 20:13:30;;;;;;;39.17;24.98;;;11.20;93.80;;;;;;5048255;28;20032;-73
2022/04/16 20:15:58;;;;;;;45.15;25.90;;;11.20;95.20;;;;;;5047346;28;20474;-73
2022/04/16 20:18:24;;;;;;;39.90;25.25;;;11.20;94.70;;;;;;5044601;28;20022;-73
2022/04/16 20:20:50;;;;;;;46.80;25.98;;;11.20;95.40;;;;;;5042999;28;20105;-74
2022/04/16 20:23:16;;;;;;;46.15;28.38;;;11.20;95.00;;;;;;5042930;28;20459;-74
2022/04/16 20:25:42;;;;;;;51.17;29.02;;;11.20;95.00;;;;;;5034655;28;20032;-75
2022/04/16 20:28:11;;;;;;;53.05;30.30;;;11.10;95.50;;;;;;5034963;28;20021;-73
2022/04/16 20:30:38;;;;;;;54.30;31.42;;;11.00;96.10;;;;;;5047717;28;20099;-73
2022/04/16 20:33:05;;;;;;;53.17;32.50;;;11.00;96.50;;;;;;5046640;28;20104;-73
2022/04/16 20:35:33;;;;;;;51.80;32.47;;;10.90;97.20;;;;;;5052674;28;20045;-75
2022/04/16 20:37:59;;;;;;;49.83;30.63;;;10.90;97.80;;;;;;5053421;28;20025;-76
2022/04/16 20:45:56;;;;;;;44.08;28.65;;;10.70;99.40;;;;;;5058405;28;20074;-76
2022/04/16 20:48:22;;;;;;;39.63;26.65;;;10.70;99.90;;;;;;5052902;28;20017;-75
2022/04/16 20:53:33;;;;;;;42.05;25.55;;;10.50;99.90;;;;;;5049995;28;20032;-75
2022/04/16 20:56:00;;;;;;;41.83;26.23;;;10.50;99.90;;;;;;5053568;28;20021;-74
2022/04/16 20:58:25;;;;;;;35.58;24.65;;;10.40;99.90;;;;;;5051537;28;20021;-76
2022/04/16 21:00:51;;;;;;;39.50;24.10;;;10.40;99.90;;;;;;5054018;28;20390;-75
2022/04/16 21:03:17;;;;;;;37.17;24.42;;;10.40;99.90;;;;;;5051691;28;20043;-75
2022/04/16 21:05:43;;;;;;;37.13;24.52;;;10.40;99.90;;;;;;5053191;28;20445;-75
2022/04/16 21:08:08;;;;;;;41.67;24.90;;;10.40;99.90;;;;;;5052814;28;20021;-75
2022/04/16 21:10:34;;;;;;;42.70;23.45;;;10.40;99.90;;;;;;5053670;28;20551;-76
2022/04/16 21:12:59;;;;;;;34.88;23.52;;;10.30;99.90;;;;;;5054035;28;20045;-76
2022/04/16 21:15:25;;;;;;;36.28;22.30;;;10.30;99.90;;;;;;5052712;28;20029;-76
2022/04/16 21:17:51;;;;;;;38.80;22.60;;;10.20;99.90;;;;;;5055296;28;20029;-77
2022/04/16 21:20:19;;;;;;;35.78;21.23;;;10.20;99.90;;;;;;5053814;28;20070;-77
2022/04/16 21:22:44;;;;;;;33.90;21.80;;;10.20;99.90;;;;;;5053609;28;20508;-77
2022/04/16 21:25:10;;;;;;;32.83;20.58;;;10.20;99.90;;;;;;5052996;28;20060;-76
2022/04/16 21:27:37;;;;;;;32.47;19.35;;;10.20;99.90;;;;;;5053855;28;20021;-76
2022/04/16 21:30:03;;;;;;;30.13;18.83;;;10.20;99.90;;;;;;5051525;28;20021;-75
2022/04/16 21:32:29;;;;;;;29.10;18.80;;;10.10;99.90;;;;;;5053721;28;20021;-75
2022/04/16 21:34:55;;;;;;;30.88;18.25;;;10.10;99.90;;;;;;5053020;28;20028;-75
2022/04/16 21:37:20;;;;;;;31.98;18.60;;;10.10;99.90;;;;;;5053334;28;20024;-75
2022/04/16 21:39:46;;;;;;;34.28;20.25;;;10.10;99.90;;;;;;5053461;28;20413;-75
2022/04/16 21:42:11;;;;;;;33.45;20.35;;;10.10;99.90;;;;;;5053310;28;20037;-75
2022/04/16 21:44:37;;;;;;;33.47;22.23;;;10.10;99.90;;;;;;5052194;28;20505;-75
2022/04/16 21:47:03;;;;;;;33.33;21.00;;;10.00;99.90;;;;;;5052192;28;20025;-75
2022/04/16 21:49:32;;;;;;;34.67;22.15;;;10.00;99.90;;;;;;5053445;28;20033;-75
2022/04/16 21:51:57;;;;;;;34.35;21.77;;;10.00;99.90;;;;;;5063127;28;20025;-74
2022/04/16 21:54:23;;;;;;;42.00;24.25;;;10.00;99.90;;;;;;5068193;28;20028;-75
2022/04/16 21:56:49;;;;;;;38.53;24.05;;;10.00;99.90;;;;;;5050979;28;20033;-75
2022/04/16 21:59:14;;;;;;;43.00;24.95;;;10.00;99.90;;;;;;5052978;28;20373;-75
2022/04/16 22:01:53;;;;;;;39.08;24.27;;;9.90;99.90;;;;;;5053701;28;20335;-75
2022/04/16 22:04:20;;;;;;;38.95;23.67;;;9.90;99.90;;;;;;5048315;28;20028;-75
2022/04/16 22:06:46;;;;;;;35.95;21.90;;;9.80;99.90;;;;;;5053516;28;20092;-74
2022/04/16 22:09:12;;;;;;;42.17;23.05;;;9.70;99.90;;;;;;5053467;28;20052;-75
2022/04/16 22:11:39;;;;;;;36.42;23.15;;;9.70;99.90;;;;;;5053317;28;20528;-75
2022/04/16 22:14:05;;;;;;;38.92;24.08;;;9.70;99.90;;;;;;5051551;28;20482;-76
2022/04/16 22:16:32;;;;;;;43.15;24.48;;;9.60;99.90;;;;;;5053137;28;20032;-75
2022/04/16 22:18:59;;;;;;;41.90;24.30;;;9.60;99.90;;;;;;5053016;28;20324;-74
2022/04/16 22:21:25;;;;;;;41.47;24.38;;;9.60;99.90;;;;;;5052766;28;20021;-75
2022/04/16 22:23:50;;;;;;;42.13;24.75;;;9.60;99.90;;;;;;5051249;28;20039;-75
2022/04/16 22:26:16;;;;;;;41.78;24.60;;;9.50;99.90;;;;;;5051597;28;20025;-74
2022/04/16 22:28:43;;;;;;;44.67;26.05;;;9.60;99.90;;;;;;5051583;28;20021;-76
2022/04/16 22:31:11;;;;;;;41.60;24.02;;;9.50;99.90;;;;;;5053102;28;20033;-77
2022/04/16 22:33:37;;;;;;;42.58;23.48;;;9.50;99.90;;;;;;5051699;28;20048;-74
2022/04/16 22:36:03;;;;;;;40.05;23.60;;;9.50;99.90;;;;;;5051551;28;20055;-75
2022/04/16 22:41:13;;;;;;;37.40;21.08;;;9.50;99.90;;;;;;5052609;28;20104;-75
2022/04/16 22:43:39;;;;;;;38.28;20.85;;;9.50;99.90;;;;;;5053256;28;20010;-75
2022/04/16 22:46:06;;;;;;;38.42;21.27;;;9.40;99.90;;;;;;5060775;28;20071;-73
2022/04/16 22:48:32;;;;;;;31.48;18.92;;;9.40;99.90;;;;;;5074859;28;20031;-76
2022/04/16 22:51:03;;;;;;;31.17;18.00;;;9.40;99.90;;;;;;5060887;28;20059;-75
2022/04/16 22:53:29;;;;;;;27.88;17.75;;;9.40;99.90;;;;;;5054127;28;20028;-76
2022/04/16 22:55:56;;;;;;;29.52;16.27;;;9.30;99.90;;;;;;5053050;28;20032;-74
2022/04/16 22:58:22;;;;;;;28.40;14.50;;;9.30;99.90;;;;;;5053359;28;20017;-75
2022/04/16 23:00:50;;;;;;;26.85;15.65;;;9.30;99.90;;;;;;5051622;28;20021;-75
2022/04/16 23:03:18;;;;;;;27.25;15.18;;;9.30;99.90;;;;;;5071047;28;20025;-75
2022/04/16 23:05:44;;;;;;;22.55;13.68;;;9.20;99.90;;;;;;5061744;28;20466;-74
2022/04/16 23:08:11;;;;;;;26.10;14.07;;;9.20;99.90;;;;;;5055266;28;20043;-75
2022/04/16 23:10:43;;;;;;;22.08;12.95;;;9.20;99.90;;;;;;5054053;28;20059;-74
2022/04/16 23:13:10;;;;;;;24.63;14.30;;;9.20;99.90;;;;;;5061939;28;20008;-74
2022/04/16 23:18:20;;;;;;;19.38;11.73;;;9.20;99.90;;;;;;5051822;28;20112;-75
2022/04/16 23:20:51;;;;;;;23.25;12.75;;;9.10;99.90;;;;;;5054247;28;20103;-74
2022/04/16 23:23:17;;;;;;;28.15;12.18;;;9.10;99.90;;;;;;5053281;28;20021;-74
2022/04/16 23:25:43;;;;;;;16.73;11.23;;;9.10;99.90;;;;;;5054260;28;20119;-75
2022/04/16 23:28:10;;;;;;;23.42;11.85;;;9.10;99.90;;;;;;5055183;28;20013;-74
2022/04/16 23:30:39;;;;;;;21.58;11.55;;;9.10;99.90;;;;;;5055157;28;20029;-74
2022/04/16 23:33:05;;;;;;;21.17;11.82;;;9.10;99.90;;;;;;5054184;28;20025;-75
2022/04/16 23:35:31;;;;;;;22.63;12.70;;;9.00;99.90;;;;;;5055325;28;20501;-75
2022/04/16 23:37:57;;;;;;;21.52;12.07;;;8.90;99.90;;;;;;5054802;28;20029;-76
2022/04/16 23:40:24;;;;;;;20.08;12.38;;;8.90;99.90;;;;;;5055713;28;20032;-75
2022/04/16 23:42:50;;;;;;;22.73;13.18;;;8.90;99.90;;;;;;5053585;28;20017;-75
2022/04/16 23:47:59;;;;;;;27.02;14.05;;;8.90;99.90;;;;;;5053252;28;20032;-75
2022/04/16 23:50:25;;;;;;;21.10;13.07;;;8.80;99.90;;;;;;5054898;28;20020;-75
2022/04/16 23:52:52;;;;;;;22.42;13.48;;;8.80;99.90;;;;;;5054920;28;20446;-75
2022/04/16 23:55:20;;;;;;;29.42;14.48;;;8.80;99.90;;;;;;5054174;28;20043;-75
2022/04/16 23:57:47;;;;;;;20.90;12.48;;;8.70;99.90;;;;;;5053375;28;20108;-75
